Time;durP1;ratioP1;P1;durP2;ratioP2;P2;SDS_P1;SDS_P2;PMS_P1;PMS_P2;Temp;Humidity;BMP_temperature;BMP_pressure;BME280_temperature;BME280_humidity;BME280_pressure;Samples;Min_cycle;Max_cycle;Signal;HPM_P1;HPM_P2
2024/01/27 00:01:17;;;;;;;9.53;6.10;;;2.10;1.00;;;;;;5046082;28;20192;-76
2024/01/27 00:03:42;;;;;;;15.97;7.70;;;2.10;1.00;;;;;;5049033;28;20416;-79
2024/01/27 00:06:08;;;;;;;17.30;7.73;;;2.10;1.00;;;;;;5045454;28;20178;-80
2024/01/27 00:08:33;;;;;;;19.50;7.97;;;2.10;1.00;;;;;;5044498;28;20209;-82
2024/01/27 00:10:59;;;;;;;11.77;6.40;;;2.10;1.00;;;;;;5041134;28;20193;-77
2024/01/27 00:13:24;;;;;;;11.07;5.60;;;2.10;1.00;;;;;;5045933;28;20227;-76
2024/01/27 00:15:51;;;;;;;17.93;5.40;;;2.20;1.00;;;;;;5039099;28;20177;-77
2024/01/27 00:18:16;;;;;;;9.13;5.20;;;2.10;1.00;;;;;;5046122;28;20191;-76
2024/01/27 00:20:42;;;;;;;8.80;4.40;;;1.90;1.00;;;;;;5048761;28;20440;-81
2024/01/27 00:23:08;;;;;;;10.33;4.60;;;2.00;1.00;;;;;;5040851;28;20180;-76
2024/01/27 00:25:33;;;;;;;15.73;4.60;;;4.40;1.00;;;;;;5042608;28;20631;-76
2024/01/27 00:27:59;;;;;;;8.50;4.73;;;2.20;1.00;;;;;;5043830;28;20174;-76
2024/01/27 00:30:26;;;;;;;9.70;5.43;;;;;;;;;;5045120;28;20201;-81
2024/01/27 00:32:51;;;;;;;11.13;5.20;;;1.90;1.00;;;;;;5049162;28;20187;-77
2024/01/27 00:35:17;;;;;;;9.33;5.30;;;1.80;1.00;;;;;;5043507;28;20423;-81
2024/01/27 00:37:42;;;;;;;9.33;4.37;;;1.70;1.00;;;;;;5038748;28;20185;-78
2024/01/27 00:40:09;;;;;;;9.80;5.47;;;1.70;1.00;;;;;;5038317;28;20194;-78
2024/01/27 00:42:35;;;;;;;13.63;6.30;;;1.70;1.00;;;;;;5040404;28;20185;-76
2024/01/27 00:45:00;;;;;;;10.20;5.53;;;1.70;1.00;;;;;;5038177;28;20490;-76
2024/01/27 00:47:26;;;;;;;11.00;5.80;;;1.60;1.00;;;;;;5045213;28;20177;-77
2024/01/27 00:49:54;;;;;;;12.73;6.00;;;1.60;1.00;;;;;;5046551;28;20212;-81
2024/01/27 00:52:19;;;;;;;9.67;5.37;;;2.00;1.00;;;;;;5036675;28;20663;-78
2024/01/27 00:54:44;;;;;;;9.77;5.67;;;1.60;1.00;;;;;;5046931;28;20408;-76
2024/01/27 00:57:10;;;;;;;14.50;5.97;;;1.50;1.00;;;;;;5049771;28;20180;-77
2024/01/27 00:59:36;;;;;;;10.07;5.33;;;1.50;1.00;;;;;;5034196;28;20220;-77
2024/01/27 01:02:02;;;;;;;11.33;5.10;;;1.50;1.00;;;;;;5046063;28;20291;-76
2024/01/27 01:04:27;;;;;;;9.87;5.37;;;1.60;1.00;;;;;;5050047;28;20169;-78
2024/01/27 01:06:53;;;;;;;9.33;5.50;;;1.60;1.00;;;;;;5031102;28;20185;-76
2024/01/27 01:09:18;;;;;;;9.37;5.50;;;1.80;1.00;;;;;;5044953;28;20259;-83
2024/01/27 01:11:44;;;;;;;10.87;5.30;;;1.60;1.00;;;;;;5037597;28;20205;-77
2024/01/27 01:14:09;;;;;;;18.77;6.20;;;1.60;1.00;;;;;;5045157;28;20185;-76
2024/01/27 01:16:35;;;;;;;11.13;5.13;;;1.90;1.00;;;;;;5029934;28;20575;-79
2024/01/27 01:19:01;;;;;;;13.37;5.63;;;;;;;;;;5038586;28;20255;-76
2024/01/27 01:21:26;;;;;;;17.50;5.87;;;1.50;1.00;;;;;;5037187;28;20289;-76
2024/01/27 01:23:52;;;;;;;10.57;5.30;;;1.50;1.00;;;;;;5031314;28;20209;-76
2024/01/27 01:26:18;;;;;;;11.27;6.00;;;1.50;1.00;;;;;;5041201;28;20589;-77
2024/01/27 01:28:43;;;;;;;12.10;6.30;;;1.40;1.00;;;;;;5048103;28;20295;-82
2024/01/27 01:31:09;;;;;;;11.63;5.40;;;1.50;1.00;;;;;;5034883;28;20200;-78
2024/01/27 01:33:34;;;;;;;13.43;5.47;;;-1.00;1.00;;;;;;5046263;28;20646;-77
2024/01/27 01:36:00;;;;;;;8.43;5.57;;;1.40;1.00;;;;;;5043732;28;20230;-77
2024/01/27 01:38:25;;;;;;;13.23;5.80;;;1.50;1.00;;;;;;5040634;28;20177;-76
2024/01/27 01:40:51;;;;;;;11.77;6.20;;;1.50;1.00;;;;;;5039408;28;20210;-80
2024/01/27 01:43:16;;;;;;;9.13;5.53;;;4.20;1.00;;;;;;5032784;28;20174;-76
2024/01/27 01:45:42;;;;;;;9.07;5.30;;;2.00;1.00;;;;;;5031501;28;20223;-81
2024/01/27 01:48:08;;;;;;;9.23;5.43;;;2.00;1.00;;;;;;5037739;28;20776;-77
2024/01/27 01:50:34;;;;;;;8.53;4.33;;;1.40;1.00;;;;;;5041804;28;20225;-76
2024/01/27 01:53:00;;;;;;;9.00;4.80;;;1.40;1.00;;;;;;5030871;28;20448;-77
2024/01/27 01:55:26;;;;;;;11.63;4.90;;;1.30;1.00;;;;;;5041394;28;20184;-79
2024/01/27 01:57:51;;;;;;;14.73;5.13;;;1.30;1.00;;;;;;5045828;28;20411;-78
2024/01/27 02:00:17;;;;;;;7.60;5.10;;;1.30;1.00;;;;;;5041696;28;20207;-74
2024/01/27 02:02:44;;;;;;;8.60;4.43;;;1.30;1.00;;;;;;5031155;28;20182;-77
2024/01/27 02:05:10;;;;;;;7.20;4.90;;;1.70;1.00;;;;;;5044485;28;20818;-75
2024/01/27 02:07:36;;;;;;;8.00;5.40;;;1.40;1.00;;;;;;5047192;28;20786;-75
2024/01/27 02:10:02;;;;;;;10.30;5.37;;;1.10;1.00;;;;;;5030701;28;20459;-76
2024/01/27 02:12:27;;;;;;;8.10;4.77;;;1.10;1.00;;;;;;5044663;28;20181;-76
2024/01/27 02:14:53;;;;;;;11.33;6.57;;;1.10;1.00;;;;;;5041926;28;20412;-76
2024/01/27 02:17:18;;;;;;;12.07;6.00;;;0.50;1.00;;;;;;5047892;28;20843;-76
2024/01/27 02:19:44;;;;;;;13.10;5.30;;;1.00;1.00;;;;;;5039223;28;20174;-74
2024/01/27 02:22:09;;;;;;;9.77;5.13;;;1.00;1.00;;;;;;5029333;28;20252;-78
2024/01/27 02:24:35;;;;;;;18.27;6.53;;;1.40;1.00;;;;;;5036225;28;20687;-75
2024/01/27 02:27:00;;;;;;;18.80;8.20;;;1.50;1.00;;;;;;5041635;28;20197;-75
2024/01/27 02:29:27;;;;;;;9.30;5.93;;;1.40;1.00;;;;;;5046640;28;20201;-76
2024/01/27 02:31:53;;;;;;;10.50;5.60;;;1.00;1.00;;;;;;5035688;28;20216;-76
2024/01/27 02:34:18;;;;;;;9.10;5.40;;;1.50;1.00;;;;;;5042584;28;20412;-75
2024/01/27 02:36:44;;;;;;;11.70;5.60;;;0.90;1.00;;;;;;5038970;28;20923;-77
2024/01/27 02:39:10;;;;;;;11.20;5.43;;;1.40;1.00;;;;;;5046258;28;20174;-77
2024/01/27 02:41:38;;;;;;;11.10;5.53;;;0.90;1.00;;;;;;5041416;28;20205;-76
2024/01/27 02:44:05;;;;;;;14.30;6.10;;;0.90;1.00;;;;;;5036332;28;20185;-75
2024/01/27 02:46:30;;;;;;;10.80;5.97;;;1.20;1.00;;;;;;5035030;28;20420;-75
2024/01/27 02:48:56;;;;;;;9.60;5.83;;;0.90;1.00;;;;;;5037622;28;20456;-75
2024/01/27 02:51:21;;;;;;;14.30;5.67;;;1.00;1.00;;;;;;5043246;28;20686;-76
2024/01/27 02:53:47;;;;;;;11.03;5.70;;;1.40;1.00;;;;;;5041979;28;20223;-76
2024/01/27 02:56:12;;;;;;;10.70;6.77;;;1.00;1.00;;;;;;5033520;28;20186;-75
2024/01/27 02:58:38;;;;;;;9.30;5.70;;;1.00;1.00;;;;;;5042423;28;20186;-75
2024/01/27 03:01:03;;;;;;;10.67;5.33;;;0.90;1.00;;;;;;5031191;28;20277;-77
2024/01/27 03:03:29;;;;;;;10.70;5.47;;;0.90;1.00;;;;;;5044736;28;20174;-76
2024/01/27 03:05:55;;;;;;;13.10;5.67;;;0.80;1.00;;;;;;5044656;28;20207;-76
2024/01/27 03:08:21;;;;;;;9.13;5.30;;;0.90;1.00;;;;;;5048469;28;20793;-77
2024/01/27 03:10:46;;;;;;;8.60;5.53;;;0.80;1.00;;;;;;5038817;28;20207;-76
2024/01/27 03:13:12;;;;;;;9.77;5.53;;;0.80;1.00;;;;;;5034506;28;20177;-76
2024/01/27 03:15:37;;;;;;;11.23;5.70;;;1.20;1.00;;;;;;5041547;28;20693;-77
2024/01/27 03:18:04;;;;;;;9.33;6.00;;;0.70;1.00;;;;;;5049381;28;20287;-75
2024/01/27 03:20:31;;;;;;;12.90;5.90;;;0.70;1.00;;;;;;5042054;28;20288;-76
2024/01/27 03:22:57;;;;;;;9.80;5.23;;;1.30;1.00;;;;;;5041632;28;20462;-77
2024/01/27 03:25:25;;;;;;;9.50;5.80;;;0.90;1.00;;;;;;5045873;28;20420;-76
2024/01/27 03:27:51;;;;;;;12.53;6.20;;;0.50;1.00;;;;;;5047125;28;20169;-76
2024/01/27 03:30:17;;;;;;;15.23;5.80;;;0.60;1.00;;;;;;5039073;28;20462;-76
2024/01/27 03:32:42;;;;;;;10.60;5.60;;;1.00;1.00;;;;;;5038530;28;20899;-75
2024/01/27 03:35:08;;;;;;;10.70;5.53;;;0.60;1.00;;;;;;5039043;28;20205;-75
2024/01/27 03:37:34;;;;;;;11.40;6.00;;;1.10;1.00;;;;;;5037277;28;20236;-75
2024/01/27 03:40:00;;;;;;;12.20;5.80;;;0.60;1.00;;;;;;5042951;28;20663;-76
2024/01/27 03:42:26;;;;;;;10.17;5.90;;;0.70;1.00;;;;;;5044779;28;20453;-75
2024/01/27 03:44:51;;;;;;;8.03;5.30;;;0.60;1.00;;;;;;5034919;28;20440;-76
2024/01/27 03:47:17;;;;;;;8.43;5.57;;;1.00;1.00;;;;;;5041833;28;20563;-75
2024/01/27 03:49:43;;;;;;;8.60;5.77;;;0.90;1.00;;;;;;5047670;28;20205;-75
2024/01/27 03:52:08;;;;;;;15.60;6.10;;;0.60;1.00;;;;;;5038254;28;20227;-75
2024/01/27 03:54:34;;;;;;;10.90;6.60;;;0.60;1.00;;;;;;5035850;28;20190;-76
2024/01/27 03:56:59;;;;;;;9.13;5.83;;;0.60;1.00;;;;;;5045880;28;20219;-74
2024/01/27 03:59:25;;;;;;;9.13;5.53;;;0.60;1.00;;;;;;5040568;28;20188;-75
2024/01/27 04:01:51;;;;;;;13.87;5.77;;;0.60;1.00;;;;;;5035374;28;20303;-76
2024/01/27 04:04:16;;;;;;;13.60;5.80;;;0.60;1.00;;;;;;5041135;28;20248;-76
2024/01/27 04:06:42;;;;;;;8.20;5.10;;;0.60;1.00;;;;;;5048909;28;20185;-78
2024/01/27 04:09:09;;;;;;;12.03;6.20;;;0.50;1.00;;;;;;5038739;28;20209;-75
2024/01/27 04:11:36;;;;;;;10.10;7.73;;;0.40;1.00;;;;;;5036961;28;20273;-76
2024/01/27 04:14:02;;;;;;;14.93;5.50;;;0.30;1.00;;;;;;5038308;28;20420;-75
2024/01/27 04:16:27;;;;;;;10.57;5.67;;;0.30;1.00;;;;;;5034077;28;20889;-76
2024/01/27 04:18:53;;;;;;;13.97;6.20;;;;;;;;;;5038749;28;20260;-76
2024/01/27 04:21:19;;;;;;;10.30;5.63;;;0.40;1.00;;;;;;5040443;28;20335;-77
2024/01/27 04:23:45;;;;;;;15.83;6.60;;;0.40;1.00;;;;;;5041130;28;21150;-78
2024/01/27 04:26:10;;;;;;;13.00;5.73;;;0.30;1.00;;;;;;5041523;28;20182;-75
2024/01/27 04:28:37;;;;;;;9.37;5.43;;;;;;;;;;5042967;28;20201;-77
2024/01/27 04:31:02;;;;;;;12.83;5.67;;;0.30;1.00;;;;;;5043966;28;20690;-76
2024/01/27 04:33:28;;;;;;;12.87;5.73;;;0.30;1.00;;;;;;5039649;28;20405;-76
2024/01/27 04:35:53;;;;;;;10.90;5.80;;;0.40;1.00;;;;;;5045098;28;20857;-77
2024/01/27 04:38:19;;;;;;;15.37;5.90;;;0.80;1.00;;;;;;5045910;28;21516;-76
2024/01/27 04:40:45;;;;;;;11.13;6.73;;;0.40;1.00;;;;;;5043453;28;20640;-76
2024/01/27 04:43:14;;;;;;;11.27;5.87;;;0.30;1.00;;;;;;5037842;28;20201;-76
2024/01/27 04:45:39;;;;;;;9.53;5.53;;;0.30;1.00;;;;;;5041445;28;20238;-76
2024/01/27 04:48:05;;;;;;;10.70;5.70;;;0.70;1.00;;;;;;5039285;28;20763;-76
2024/01/27 04:50:30;;;;;;;10.83;5.60;;;0.30;1.00;;;;;;5037513;28;20912;-76
2024/01/27 04:52:56;;;;;;;10.67;5.50;;;0.20;1.00;;;;;;5036956;28;20173;-74
2024/01/27 04:55:21;;;;;;;11.17;6.00;;;0.20;1.00;;;;;;5039532;28;20178;-76
2024/01/27 04:57:47;;;;;;;12.07;5.30;;;0.20;1.00;;;;;;5035641;28;20835;-76
2024/01/27 05:00:13;;;;;;;8.87;5.50;;;0.10;1.00;;;;;;5039969;28;20623;-75
2024/01/27 05:02:42;;;;;;;11.47;6.10;;;0.20;1.00;;;;;;5045135;28;20185;-77
2024/01/27 05:05:08;;;;;;;12.10;5.43;;;0.20;1.00;;;;;;5031726;28;20500;-77
2024/01/27 05:07:34;;;;;;;16.80;5.20;;;0.20;1.00;;;;;;5040435;28;20438;-76
2024/01/27 05:09:59;;;;;;;11.50;4.93;;;0.20;1.00;;;;;;5048929;28;20459;-76
2024/01/27 05:12:25;;;;;;;8.83;5.10;;;0.60;1.00;;;;;;5042359;28;20264;-78
2024/01/27 05:14:50;;;;;;;15.40;5.23;;;0.60;1.00;;;;;;5048604;28;20195;-76
2024/01/27 05:17:16;;;;;;;9.03;5.53;;;0.20;1.00;;;;;;5043232;28;20223;-76
2024/01/27 05:19:42;;;;;;;8.10;5.00;;;0.50;1.00;;;;;;5043069;28;20181;-78
2024/01/27 05:22:08;;;;;;;10.30;5.50;;;;;;;;;;5030393;28;20205;-79
2024/01/27 05:24:33;;;;;;;12.80;5.03;;;0.10;1.00;;;;;;5037158;28;20182;-76
2024/01/27 05:26:59;;;;;;;13.47;5.10;;;0.20;1.00;;;;;;5040012;28;20500;-76
2024/01/27 05:29:27;;;;;;;11.93;5.10;;;0.20;1.00;;;;;;5047664;28;20201;-75
2024/01/27 05:31:53;;;;;;;8.90;5.50;;;0.20;1.00;;;;;;5040795;28;20197;-76
2024/01/27 05:34:19;;;;;;;9.83;5.20;;;;;;;;;;5031534;28;20515;-77
2024/01/27 05:36:44;;;;;;;11.40;5.40;;;0.20;1.00;;;;;;5035033;28;20572;-77
2024/01/27 05:39:10;;;;;;;10.40;5.10;;;0.20;1.00;;;;;;5037342;28;20458;-75
2024/01/27 05:41:35;;;;;;;13.53;5.30;;;0.20;1.00;;;;;;5029251;28;20201;-78
2024/01/27 05:44:01;;;;;;;11.43;5.23;;;0.50;1.00;;;;;;5037181;28;20247;-77
2024/01/27 05:46:26;;;;;;;11.90;5.17;;;0.60;1.00;;;;;;5047067;28;20193;-76
2024/01/27 05:48:53;;;;;;;17.03;6.43;;;0.60;1.00;;;;;;5035021;28;20217;-77
2024/01/27 05:51:23;;;;;;;10.93;5.30;;;0.20;1.00;;;;;;5036332;28;20330;-77
2024/01/27 05:53:49;;;;;;;10.70;4.70;;;0.10;1.00;;;;;;5043762;28;20448;-76
2024/01/27 05:56:14;;;;;;;9.67;5.37;;;0.10;1.00;;;;;;5045505;28;20513;-76
2024/01/27 05:58:40;;;;;;;11.13;5.03;;;0.10;1.00;;;;;;5033554;28;20562;-78
2024/01/27 06:01:05;;;;;;;8.70;5.47;;;0.00;1.00;;;;;;5039984;28;20221;-77
2024/01/27 06:03:32;;;;;;;8.83;5.33;;;0.00;1.00;;;;;;5045787;28;20268;-76
2024/01/27 06:05:57;;;;;;;10.80;4.90;;;0.00;1.00;;;;;;5043197;28;20411;-79
2024/01/27 06:08:23;;;;;;;7.67;5.10;;;0.50;1.00;;;;;;5042536;28;20415;-76
2024/01/27 06:10:48;;;;;;;14.20;5.60;;;0.10;1.00;;;;;;5040000;28;20355;-76
2024/01/27 06:13:14;;;;;;;12.77;5.67;;;0.10;1.00;;;;;;5035331;28;20181;-78
2024/01/27 06:15:39;;;;;;;11.30;5.40;;;0.10;1.00;;;;;;5036849;28;20188;-76
2024/01/27 06:18:05;;;;;;;14.27;5.83;;;0.40;1.00;;;;;;5042207;28;20177;-77
2024/01/27 06:20:31;;;;;;;9.00;4.83;;;0.10;1.00;;;;;;5039667;28;20233;-76
2024/01/27 06:22:57;;;;;;;10.60;5.57;;;0.10;1.00;;;;;;5042734;28;20498;-78
2024/01/27 06:25:24;;;;;;;8.10;5.10;;;0.40;1.00;;;;;;5040687;28;20228;-78
2024/01/27 06:27:49;;;;;;;10.60;5.60;;;0.00;1.00;;;;;;5045476;28;20897;-76
2024/01/27 06:30:18;;;;;;;10.00;5.20;;;0.00;1.00;;;;;;5042653;28;20484;-78
2024/01/27 06:32:43;;;;;;;15.43;6.10;;;0.10;1.00;;;;;;5044508;28;20592;-77
2024/01/27 06:35:09;;;;;;;21.43;5.57;;;0.40;1.00;;;;;;5050829;28;20404;-78
2024/01/27 06:37:35;;;;;;;9.40;5.47;;;0.40;1.00;;;;;;5034867;28;20212;-77
2024/01/27 06:40:00;;;;;;;10.27;5.43;;;0.00;1.00;;;;;;5045224;28;20200;-77
2024/01/27 06:42:26;;;;;;;12.13;5.70;;;0.00;1.00;;;;;;5041514;28;20215;-77
2024/01/27 06:44:51;;;;;;;12.13;5.70;;;0.30;1.00;;;;;;5044898;28;20201;-77
2024/01/27 06:47:17;;;;;;;11.20;6.00;;;0.30;1.00;;;;;;5039954;28;20340;-76
2024/01/27 06:49:42;;;;;;;14.50;5.80;;;0.30;1.00;;;;;;5042412;28;20567;-77
2024/01/27 06:52:08;;;;;;;11.40;5.77;;;0.00;1.00;;;;;;5042928;28;20667;-77
2024/01/27 06:54:33;;;;;;;11.90;6.40;;;0.00;1.00;;;;;;5047253;28;20182;-76
2024/01/27 06:57:00;;;;;;;14.33;6.97;;;0.00;1.00;;;;;;5046695;28;20220;-76
2024/01/27 06:59:26;;;;;;;28.63;11.00;;;0.40;1.00;;;;;;5033102;28;20789;-76
2024/01/27 07:01:51;;;;;;;34.60;14.73;;;0.00;1.00;;;;;;5036097;28;20432;-76
2024/01/27 07:04:17;;;;;;;31.13;14.07;;;0.00;1.00;;;;;;5043466;28;20209;-76
2024/01/27 07:06:43;;;;;;;28.07;13.50;;;0.00;1.00;;;;;;5031549;28;20652;-77
2024/01/27 07:09:09;;;;;;;20.50;11.90;;;0.30;1.00;;;;;;5039565;28;20472;-77
2024/01/27 07:11:35;;;;;;;19.80;10.10;;;0.00;1.00;;;;;;5039029;28;20968;-78
2024/01/27 07:14:02;;;;;;;17.77;9.50;;;;;;;;;;5037805;28;20166;-78
2024/01/27 07:16:27;;;;;;;19.60;8.87;;;-0.10;1.00;;;;;;5047208;28;20415;-78
2024/01/27 07:18:53;;;;;;;15.20;7.03;;;-0.10;1.00;;;;;;5044737;28;20411;-78
2024/01/27 07:21:18;;;;;;;10.80;6.47;;;-0.10;1.00;;;;;;5042307;28;20225;-77
2024/01/27 07:23:44;;;;;;;12.93;7.20;;;0.30;1.00;;;;;;5045258;28;20181;-76
2024/01/27 07:26:11;;;;;;;12.20;6.90;;;-0.20;1.00;;;;;;5046758;28;20181;-77
2024/01/27 07:28:37;;;;;;;15.70;7.30;;;0.00;1.00;;;;;;5039426;28;20500;-77
2024/01/27 07:31:03;;;;;;;10.53;6.60;;;-0.10;1.00;;;;;;5038260;28;20428;-77
2024/01/27 07:33:29;;;;;;;11.57;6.80;;;;;;;;;;5042201;28;20500;-77
2024/01/27 07:35:55;;;;;;;15.80;6.77;;;1.30;1.00;;;;;;5037305;28;20937;-77
2024/01/27 07:38:20;;;;;;;19.30;6.70;;;0.00;1.00;;;;;;5047445;28;20494;-77
2024/01/27 07:40:46;;;;;;;9.80;5.60;;;0.10;1.00;;;;;;5048745;28;20236;-77
2024/01/27 07:43:11;;;;;;;9.80;5.03;;;0.10;1.00;;;;;;5042374;28;20193;-77
2024/01/27 07:45:37;;;;;;;10.57;6.10;;;;;;;;;;5040481;28;20205;-77
2024/01/27 07:48:04;;;;;;;9.73;4.97;;;0.20;1.00;;;;;;5044187;28;20185;-76
2024/01/27 07:50:30;;;;;;;8.80;5.10;;;3.10;1.00;;;;;;5046881;28;20205;-77
2024/01/27 07:52:56;;;;;;;8.47;4.67;;;0.40;1.00;;;;;;5046924;28;20416;-76
2024/01/27 07:55:21;;;;;;;11.93;5.27;;;0.40;1.00;;;;;;5041680;28;20419;-77
2024/01/27 07:57:47;;;;;;;8.07;5.57;;;0.40;1.00;;;;;;5041132;28;20216;-78
2024/01/27 08:00:13;;;;;;;17.67;5.30;;;0.50;1.00;;;;;;5035749;28;20197;-78
2024/01/27 08:02:38;;;;;;;8.40;5.50;;;0.80;1.00;;;;;;5032588;28;20182;-78
2024/01/27 08:05:04;;;;;;;10.87;4.70;;;0.50;1.00;;;;;;5042643;28;20182;-77
2024/01/27 08:07:30;;;;;;;12.03;5.47;;;0.60;1.00;;;;;;5047459;28;20182;-78
2024/01/27 08:09:57;;;;;;;10.53;5.00;;;0.70;1.00;;;;;;5036529;28;20208;-77
2024/01/27 08:12:22;;;;;;;8.63;5.13;;;0.60;1.00;;;;;;5045892;28;20703;-77
2024/01/27 08:14:48;;;;;;;9.80;4.93;;;0.70;1.00;;;;;;5040831;28;20424;-77
2024/01/27 08:17:14;;;;;;;8.10;5.10;;;1.20;1.00;;;;;;5044399;28;20521;-78
2024/01/27 08:19:39;;;;;;;12.20;4.60;;;0.80;1.00;;;;;;5041673;28;20185;-76
2024/01/27 08:22:05;;;;;;;8.43;4.83;;;0.90;1.00;;;;;;5046300;28;20227;-77
2024/01/27 08:24:31;;;;;;;10.50;5.60;;;0.90;1.00;;;;;;5039384;28;20217;-76
2024/01/27 08:26:57;;;;;;;8.87;5.30;;;1.10;1.00;;;;;;5037047;28;20231;-78
2024/01/27 08:29:23;;;;;;;9.13;5.10;;;1.50;1.00;;;;;;5036738;28;20221;-74
2024/01/27 08:31:49;;;;;;;10.20;5.20;;;;;;;;;;5036843;28;20463;-77
2024/01/27 08:34:14;;;;;;;11.67;5.20;;;1.30;1.00;;;;;;5037792;28;20177;-78
2024/01/27 08:36:40;;;;;;;7.37;4.40;;;1.30;1.00;;;;;;5030997;28;20467;-78
2024/01/27 08:39:09;;;;;;;10.37;5.10;;;1.50;1.00;;;;;;5038722;28;20178;-77
2024/01/27 08:41:34;;;;;;;11.30;5.53;;;1.70;1.00;;;;;;5043963;28;20655;-77
2024/01/27 08:44:00;;;;;;;9.63;5.30;;;2.10;1.00;;;;;;5036624;28;20519;-77
2024/01/27 08:46:25;;;;;;;10.70;5.67;;;1.80;1.00;;;;;;5046394;28;20230;-77
2024/01/27 08:48:51;;;;;;;7.53;5.10;;;1.90;1.00;;;;;;5044851;28;20216;-79
2024/01/27 08:51:17;;;;;;;7.60;4.63;;;2.10;1.00;;;;;;5037085;28;20209;-79
2024/01/27 08:53:48;;;;;;;11.30;5.03;;;2.20;1.00;;;;;;5041365;28;20173;-77
2024/01/27 08:56:19;;;;;;;10.90;4.80;;;2.90;1.00;;;;;;5040217;28;20416;-77
2024/01/27 08:58:47;;;;;;;13.80;5.03;;;2.50;1.00;;;;;;5044530;28;20889;-77
2024/01/27 09:01:14;;;;;;;8.47;4.53;;;3.10;1.00;;;;;;5047974;28;20783;-77
2024/01/27 09:03:40;;;;;;;11.70;5.60;;;;;;;;;;5039438;28;20412;-78
2024/01/27 09:06:10;;;;;;;8.77;5.17;;;3.50;1.00;;;;;;5045363;28;20457;-79
2024/01/27 09:08:35;;;;;;;10.60;4.60;;;3.70;1.00;;;;;;5033619;28;20863;-78
2024/01/27 09:11:04;;;;;;;12.27;4.67;;;3.70;1.00;;;;;;5037604;28;20451;-78
2024/01/27 09:13:29;;;;;;;8.67;4.70;;;3.80;1.00;;;;;;5037787;28;20187;-79
2024/01/27 09:15:57;;;;;;;9.17;4.87;;;4.10;1.00;;;;;;5041711;28;20415;-77
2024/01/27 09:18:23;;;;;;;11.13;4.50;;;4.10;1.00;;;;;;5038524;28;20754;-79
2024/01/27 09:20:48;;;;;;;7.67;4.70;;;4.60;1.00;;;;;;5033332;28;20439;-83
2024/01/27 09:23:14;;;;;;;7.77;4.30;;;4.70;1.00;;;;;;5036834;28;20216;-80
2024/01/27 09:25:39;;;;;;;7.00;4.27;;;5.60;1.00;;;;;;5031467;28;20216;-80
2024/01/27 09:28:05;;;;;;;7.83;4.73;;;7.40;1.00;;;;;;5050259;28;20165;-81
2024/01/27 09:30:30;;;;;;;7.30;4.20;;;11.10;1.00;;;;;;5041902;28;20215;-81
2024/01/27 09:32:56;;;;;;;7.40;3.73;;;11.80;1.00;;;;;;5046261;28;20180;-80
2024/01/27 09:35:21;;;;;;;6.73;3.80;;;13.50;1.00;;;;;;5035581;28;20247;-80
2024/01/27 09:37:47;;;;;;;5.70;3.37;;;16.00;1.00;;;;;;5037480;28;20172;-80
2024/01/27 09:40:13;;;;;;;6.80;3.90;;;17.30;1.00;;;;;;5037322;28;20600;-80
2024/01/27 09:42:39;;;;;;;8.97;6.73;;;15.80;1.00;;;;;;5047468;28;20188;-79
2024/01/27 09:45:05;;;;;;;7.80;4.40;;;18.50;1.00;;;;;;5039725;28;20265;-78
2024/01/27 09:47:31;;;;;;;10.97;4.50;;;19.30;1.00;;;;;;5048016;28;20551;-78
2024/01/27 09:49:57;;;;;;;6.80;4.13;;;19.90;1.00;;;;;;5037831;28;20683;-77
2024/01/27 09:52:23;;;;;;;6.50;4.07;;;19.90;1.00;;;;;;5034195;28;20176;-80
2024/01/27 09:54:48;;;;;;;8.03;3.97;;;20.80;1.00;;;;;;5040248;28;20176;-81
2024/01/27 09:57:14;;;;;;;6.80;4.17;;;21.10;1.00;;;;;;5051166;28;20422;-80
2024/01/27 09:59:44;;;;;;;6.40;3.50;;;21.70;1.00;;;;;;5053408;28;20553;-80
2024/01/27 10:02:12;;;;;;;7.03;3.67;;;22.60;1.00;;;;;;5045545;28;20554;-79
2024/01/27 10:04:42;;;;;;;7.90;3.97;;;23.50;1.00;;;;;;5041268;28;20410;-79
2024/01/27 10:07:08;;;;;;;5.40;3.60;;;23.00;1.00;;;;;;5041829;28;20681;-79
2024/01/27 10:09:33;;;;;;;8.57;3.57;;;23.20;1.00;;;;;;5036604;28;20904;-78
2024/01/27 10:12:01;;;;;;;7.37;3.70;;;22.50;1.00;;;;;;5046186;28;20296;-80
2024/01/27 10:14:38;;;;;;;7.70;4.17;;;22.20;1.00;;;;;;5032689;28;20705;-80
2024/01/27 10:17:03;;;;;;;8.00;3.63;;;22.10;1.00;;;;;;5043532;28;20403;-79
2024/01/27 10:19:29;;;;;;;6.17;3.40;;;22.20;1.00;;;;;;5045806;28;20415;-80
2024/01/27 10:22:04;;;;;;;11.77;3.70;;;22.80;1.00;;;;;;5052783;28;20291;-79
2024/01/27 10:24:32;;;;;;;8.63;4.20;;;23.40;1.00;;;;;;5052253;28;20168;-79
2024/01/27 10:27:02;;;;;;;9.02;3.80;;;23.90;1.00;;;;;;5052805;28;20434;-80
2024/01/27 10:29:28;;;;;;;9.23;3.70;;;24.70;1.00;;;;;;5053493;28;20246;-81
2024/01/27 10:31:53;;;;;;;7.13;3.20;;;24.60;1.00;;;;;;5042030;28;20427;-79
2024/01/27 10:34:21;;;;;;;9.50;3.80;;;24.10;1.00;;;;;;5047638;28;20480;-80
2024/01/27 10:36:48;;;;;;;6.10;3.30;;;;;;;;;;5044747;28;20508;-80
2024/01/27 10:39:20;;;;;;;6.70;3.20;;;24.80;1.00;;;;;;5043528;28;20415;-80
2024/01/27 10:41:46;;;;;;;9.10;3.50;;;25.00;1.00;;;;;;5052866;28;20473;-80
2024/01/27 10:44:17;;;;;;;7.30;3.80;;;25.10;1.00;;;;;;5052798;28;20438;-81
2024/01/27 10:46:46;;;;;;;7.17;3.20;;;26.10;1.00;;;;;;5044774;28;20423;-81
2024/01/27 10:49:14;;;;;;;8.97;3.60;;;26.50;1.00;;;;;;5047398;28;20300;-80
2024/01/27 10:51:45;;;;;;;6.33;3.40;;;26.60;1.00;;;;;;5042067;28;20234;-80
2024/01/27 10:54:15;;;;;;;14.77;3.87;;;26.60;1.00;;;;;;5035920;28;20200;-80
2024/01/27 10:56:43;;;;;;;7.57;3.90;;;26.50;1.00;;;;;;5045938;28;20532;-80
2024/01/27 10:59:09;;;;;;;7.90;4.10;;;27.80;1.00;;;;;;5042596;28;20180;-80
2024/01/27 11:01:37;;;;;;;8.43;4.40;;;28.40;1.00;;;;;;5040236;28;20606;-81
2024/01/27 11:04:06;;;;;;;11.00;3.53;;;28.50;1.00;;;;;;5045357;28;20277;-80
2024/01/27 11:06:31;;;;;;;8.87;4.10;;;27.90;1.00;;;;;;5051573;28;20269;-78
2024/01/27 11:08:59;;;;;;;8.40;4.23;;;28.00;1.00;;;;;;5041187;28;20599;-80
2024/01/27 11:11:25;;;;;;;9.57;4.20;;;28.90;1.00;;;;;;5048663;28;20238;-79
2024/01/27 11:13:51;;;;;;;5.32;3.10;;;29.30;1.00;;;;;;5040991;28;20240;-82
2024/01/27 11:16:18;;;;;;;9.05;3.67;;;29.30;1.00;;;;;;5044443;28;20185;-81
2024/01/27 11:18:44;;;;;;;8.10;3.35;;;29.60;1.00;;;;;;5036686;28;20177;-82
2024/01/27 11:21:15;;;;;;;9.30;3.50;;;28.60;1.00;;;;;;5041524;28;20249;-78
2024/01/27 11:23:41;;;;;;;7.95;3.28;;;28.80;1.00;;;;;;5045898;28;20411;-79
2024/01/27 11:26:08;;;;;;;10.10;3.70;;;28.80;1.00;;;;;;5038530;28;20169;-79
2024/01/27 11:28:35;;;;;;;7.95;3.58;;;28.70;1.00;;;;;;5042745;28;20523;-79
2024/01/27 11:31:05;;;;;;;4.85;2.95;;;28.80;1.00;;;;;;5046725;28;20204;-80
2024/01/27 11:33:31;;;;;;;6.55;3.00;;;28.60;1.00;;;;;;5043224;28;20180;-79
2024/01/27 11:36:04;;;;;;;7.97;3.15;;;28.60;1.00;;;;;;5042103;28;20173;-82
2024/01/27 11:38:31;;;;;;;8.02;3.03;;;29.20;1.00;;;;;;5046137;28;20226;-79
2024/01/27 11:40:57;;;;;;;9.48;3.67;;;29.40;1.00;;;;;;5039882;28;20196;-80
2024/01/27 11:43:23;;;;;;;8.77;3.17;;;29.40;1.00;;;;;;5037807;28;20185;-80
2024/01/27 11:46:04;;;;;;;6.70;3.33;;;29.60;1.00;;;;;;5037902;28;20189;-79
2024/01/27 11:48:29;;;;;;;7.90;3.40;;;28.50;1.00;;;;;;5033023;28;20259;-79
2024/01/27 11:51:12;;;;;;;10.35;3.60;;;27.60;1.00;;;;;;5048887;28;20287;-82
2024/01/27 11:53:37;;;;;;;11.00;3.20;;;27.30;1.00;;;;;;5036974;28;20634;-80
2024/01/27 11:56:04;;;;;;;9.10;2.63;;;27.20;1.00;;;;;;5033713;28;20182;-82
2024/01/27 11:58:30;;;;;;;7.30;2.40;;;27.00;1.00;;;;;;5037278;28;20177;-79
2024/01/27 12:00:56;;;;;;;8.30;3.30;;;27.60;1.00;;;;;;5041334;28;20331;-81
2024/01/27 12:03:22;;;;;;;7.53;2.63;;;27.60;1.00;;;;;;5046642;28;20176;-79
2024/01/27 12:05:48;;;;;;;6.00;2.57;;;27.20;1.00;;;;;;5040191;28;20199;-81
2024/01/27 12:08:13;;;;;;;6.07;2.87;;;26.50;1.00;;;;;;5047453;28;20764;-79
2024/01/27 12:10:39;;;;;;;9.47;3.07;;;26.40;1.00;;;;;;5046757;28;20709;-79
2024/01/27 12:13:05;;;;;;;7.68;2.80;;;26.50;1.00;;;;;;5041070;28;20404;-78
2024/01/27 12:15:30;;;;;;;6.60;3.50;;;27.20;1.00;;;;;;5035234;28;20203;-79
2024/01/27 12:17:56;;;;;;;7.50;3.00;;;27.40;1.00;;;;;;5048049;28;20260;-79
2024/01/27 12:20:25;;;;;;;8.50;2.73;;;28.30;1.00;;;;;;5049259;28;20207;-78
2024/01/27 12:23:01;;;;;;;6.43;2.70;;;28.80;1.00;;;;;;5043843;28;20249;-79
2024/01/27 12:25:27;;;;;;;9.97;2.60;;;28.40;1.00;;;;;;5041396;28;20259;-79
2024/01/27 12:27:52;;;;;;;8.77;3.07;;;29.00;1.00;;;;;;5040003;28;20611;-77
2024/01/27 12:30:18;;;;;;;6.90;3.22;;;28.70;1.00;;;;;;5038386;28;20288;-78
2024/01/27 12:32:43;;;;;;;6.38;2.75;;;28.70;1.00;;;;;;5041517;28;20181;-78
2024/01/27 12:35:09;;;;;;;7.75;3.00;;;29.60;1.00;;;;;;5042836;28;20173;-85
2024/01/27 12:37:36;;;;;;;10.45;2.63;;;30.40;1.00;;;;;;5047954;28;20304;-84
2024/01/27 12:40:01;;;;;;;9.30;2.63;;;30.90;1.00;;;;;;5050681;28;20189;-84
2024/01/27 12:42:27;;;;;;;6.78;2.95;;;30.80;1.00;;;;;;5046027;28;20230;-80
2024/01/27 12:44:52;;;;;;;7.40;2.72;;;30.30;1.00;;;;;;5048744;28;20267;-80
2024/01/27 12:47:19;;;;;;;7.20;2.60;;;29.70;1.00;;;;;;5049233;28;20177;-81
2024/01/27 12:49:45;;;;;;;6.72;2.58;;;29.70;1.00;;;;;;5043380;28;20189;-80
2024/01/27 12:52:11;;;;;;;8.57;2.70;;;28.70;1.00;;;;;;5053031;28;20326;-80
2024/01/27 12:54:36;;;;;;;5.68;2.53;;;27.90;1.00;;;;;;5053663;28;20173;-80
2024/01/27 12:57:02;;;;;;;6.57;2.67;;;27.20;1.00;;;;;;5042452;28;20196;-81